Latest Weather Observations for Taree Airport

IDN60801

Issued at 5:42 pm EST Sunday 15 September 2019 (issued every 10 minutes, with the page automatically refreshed every 10 minutes)

About weather observations | Map of weather stations | Latest weather observations for NSW | Other Formats
Station Details ID: 060141 Name: TAREE AIRPORT AWS Lat: -31.89 Lon: 152.51 Height: 8.0 m
Data from the previous 72 hours. | See also: Recent months at Taree Airport
Date/Time
EST
Temp
°C
App
Temp
°C
Dew
Point
°C
Rel
Hum
%
Delta-T
°C
Wind Press
QNH
hPa
Press
MSL
hPa
Rain since
9am
mm
Dir  Spd
km/h
Gust
km/h
Spd
kts
Gust
kts
15/05:30pm 19.2 15.8 7.6 47 5.9 ENE 15 19 8 10 1019.7 1019.7 0.0
15/05:00pm 21.0 17.1 7.3 41 7.0 ENE 17 26 9 14 1019.8 1019.8 0.0
15/04:30pm 21.9 17.7 7.3 39 7.5 ENE 19 26 10 14 1019.6 1019.6 0.0
15/04:00pm 22.4 19.0 9.2 43 7.1 E 17 24 9 13 1019.4 1019.4 0.0
15/03:30pm 22.3 18.6 9.5 44 6.9 E 19 26 10 14 1019.4 1019.4 0.0
15/03:00pm 22.6 18.3 8.0 39 7.6 E 20 28 11 15 1019.4 1019.4 0.0
15/02:30pm 23.2 19.2 9.2 41 7.5 ENE 20 28 11 15 1019.6 1019.6 0.0
15/02:00pm 23.7 20.5 11.1 45 7.0 E 19 30 10 16 1019.8 1019.8 0.0
15/01:30pm 23.9 20.2 9.5 40 7.8 E 19 26 10 14 1020.1 1020.1 0.0
15/01:00pm 24.2 20.2 5.1 29 9.6 ESE 15 26 8 14 1020.5 1020.5 0.0
15/12:30pm 24.3 20.2 -0.1 20 11.1 NE 11 17 6 9 1020.8 1020.8 0.0
15/12:00pm 23.7 20.2 3.6 27 9.8 ENE 11 17 6 9 1021.3 1021.3 0.0
15/11:30am 22.6 19.2 4.2 30 9.0 NNE 11 17 6 9 1021.9 1021.9 0.0
15/11:00am 21.6 19.3 5.5 35 8.0 SSW 7 11 4 6 1022.6 1022.6 0.0
15/10:30am 21.4 19.2 6.1 37 7.7 SE 7 11 4 6 1023.1 1023.1 0.0
15/10:00am 19.6 17.3 7.4 45 6.2 SW 9 13 5 7 1023.5 1023.5 0.0
15/09:30am 18.5 16.9 8.7 53 5.1 W 7 15 4 8 1023.9 1023.9 0.0
15/09:00am 17.3 15.8 9.2 59 4.2 NNW 7 13 4 7 1024.1 1024.1 0.0
15/08:30am 15.7 14.4 9.8 68 3.1 NW 7 11 4 6 1024.4 1024.4 0.0
15/08:00am 14.1 11.8 8.9 71 2.6 W 11 13 6 7 1024.5 1024.5 0.0
15/07:30am 12.3 10.8 9.1 81 1.6 WNW 7 9 4 5 1024.1 1024.1 0.0
15/07:00am 10.7 10.6 9.5 92 0.6 CALM 0 0 0 0 1023.4 1023.4 0.0
15/06:30am 10.0 8.9 9.9 99 0.1 W 6 9 3 5 1023.3 1023.3 0.0
15/06:00am 8.7 7.2 8.3 97 0.2 WSW 6 7 3 4 1022.8 1022.8 0.0
15/05:30am 9.0 8.3 8.4 96 0.3 WSW 2 6 1 3 1022.6 1022.6 0.0
15/05:00am 9.2 8.8 8.1 93 0.5 CALM 0 0 0 0 1022.8 1022.8 0.0
15/04:30am 10.2 10.1 9.3 94 0.4 CALM 0 0 0 0 1022.5 1022.5 0.0
15/04:00am 10.6 10.5 9.4 92 0.6 CALM 0 0 0 0 1022.5 1022.5 0.0
15/03:30am 11.0 10.7 8.8 86 1.1 CALM 0 0 0 0 1022.7 1022.7 0.0
15/03:00am 12.0 12.0 9.7 86 1.2 CALM 0 0 0 0 1022.6 1022.6 0.0
15/02:30am 12.7 12.7 9.9 83 1.4 CALM 0 0 0 0 1022.8 1022.8 0.0
15/02:00am 13.3 13.1 10.3 82 1.5 WSW 2 7 1 4 1023.0 1023.0 0.0
15/01:30am 12.8 12.8 9.8 82 1.5 CALM 0 0 0 0 1023.1 1023.1 0.0
15/01:00am 13.3 12.2 9.9 80 1.7 W 6 7 3 4 1023.3 1023.3 0.0
15/12:30am 13.5 12.8 10.1 80 1.8 WNW 4 7 2 4 1023.6 1023.6 0.0
15/12:00am 13.2 13.3 10.0 81 1.6 CALM 0 0 0 0 1023.8 1023.8 0.0
 
Date/Time
EST
Temp
°C
App
Temp
°C
Dew
Point
°C
Rel
Hum
%
Delta-T
°C
Wind Press
QNH
hPa
Press
MSL
hPa
Rain since
9am
mm
Dir  Spd
km/h
Gust
km/h
Spd
kts
Gust
kts
14/11:30pm 13.3 13.4 10.3 82 1.6 CALM 0 0 0 0 1023.7 1023.7 0.0
14/11:00pm 13.1 13.2 10.3 83 1.4 CALM 0 0 0 0 1023.6 1023.6 0.0
14/10:30pm 12.8 12.9 10.3 85 1.3 CALM 0 0 0 0 1023.7 1023.7 0.0
14/10:00pm 12.1 12.1 9.7 85 1.2 CALM 0 0 0 0 1023.8 1023.8 0.0
14/09:30pm 12.5 12.5 9.7 83 1.4 CALM 0 0 0 0 1023.9 1023.9 0.0
14/09:00pm 12.3 12.3 9.7 84 1.3 CALM 0 0 0 0 1024.0 1024.0 0.0
14/08:30pm 12.1 11.2 9.3 83 1.4 WNW 4 9 2 5 1023.9 1023.9 0.0
14/08:00pm 12.4 11.0 9.6 83 1.4 NNW 7 7 4 4 1023.7 1023.7 0.0
14/07:30pm 11.8 10.9 7.9 77 1.9 N 2 9 1 5 1023.5 1023.5 0.0
14/07:00pm 13.4 13.3 9.6 78 1.9 CALM 0 7 0 4 1023.1 1023.1 0.0
14/06:30pm 14.0 12.6 9.6 75 2.3 NE 7 7 4 4 1022.8 1022.8 0.0
14/06:00pm 14.9 13.5 9.5 70 2.8 E 7 11 4 6 1022.6 1022.6 0.0
14/05:30pm 16.2 14.1 9.6 65 3.4 ESE 11 19 6 10 1022.4 1022.4 0.0
14/05:00pm 17.1 13.3 9.8 62 3.8 SE 20 30 11 16 1022.2 1022.2 0.0
14/04:30pm 17.5 14.0 10.1 62 3.9 SE 19 28 10 15 1021.9 1021.9 0.0
14/04:00pm 17.9 13.0 9.8 59 4.3 SE 26 37 14 20 1021.6 1021.6 0.0
14/03:30pm 18.4 13.3 10.5 60 4.2 SE 28 39 15 21 1021.4 1021.4 0.0
14/03:00pm 19.3 13.5 10.8 58 4.6 SE 32 43 17 23 1021.3 1021.3 0.0
14/02:30pm 18.8 13.7 10.6 59 4.4 SSE 28 43 15 23 1021.1 1021.1 0.0
14/02:00pm 19.8 14.0 11.6 59 4.5 SE 33 44 18 24 1021.0 1021.0 0.0
14/01:30pm 20.1 14.4 11.3 57 4.8 SSE 32 41 17 22 1021.1 1021.1 0.0
14/01:00pm 20.4 14.8 11.6 57 4.9 SSE 32 48 17 26 1021.0 1021.0 0.0
14/12:38pm 20.3 15.3 11.0 55 5.1 SSE 28 46 15 25 1021.1 1021.1 0.0
14/12:30pm 22.3 16.0 5.7 34 8.3 S 28 37 15 20 1021.1 1021.1 0.0
14/12:00pm 22.1 14.5 2.8 28 9.1 SSW 32 44 17 24 1021.4 1021.4 0.0
14/11:41am 21.6 14.0 0.8 25 9.5 S 30 48 16 26 1021.3 1021.3 0.0
14/11:30am 22.2 13.7 0.7 24 9.8 S 35 43 19 23 1021.5 1021.5 0.0
14/11:00am 21.7 13.5 -0.9 22 9.9 S 32 41 17 22 1021.6 1021.6 0.0
14/10:30am 22.3 14.1 0.2 23 10.0 SSW 33 44 18 24 1021.6 1021.6 0.0
14/10:00am 21.5 13.1 -1.1 22 9.9 SSW 33 44 18 24 1021.5 1021.5 0.0
14/09:30am 21.5 14.0 -1.7 21 10.0 SSW 28 37 15 20 1021.3 1021.3 0.0
14/09:00am 20.9 16.1 0.2 25 9.2 WSW 15 32 8 17 1021.2 1021.2 0.0
14/08:30am 17.6 14.2 4.2 41 6.3 WSW 11 15 6 8 1021.1 1021.1 0.0
14/08:00am 14.4 12.0 7.2 62 3.5 WSW 9 13 5 7 1020.7 1020.7 0.0
14/07:30am 11.6 9.2 6.9 73 2.2 W 9 13 5 7 1020.3 1020.3 0.0
14/07:00am 6.8 5.9 5.9 94 0.4 CALM 0 7 0 4 1020.1 1020.1 0.0
14/06:30am 9.1 6.6 6.5 84 1.2 W 9 11 5 6 1019.9 1019.9 0.0
14/06:00am 8.5 6.5 7.3 92 0.6 W 7 9 4 5 1019.5 1019.5 0.0
14/05:30am 8.9 6.1 8.6 98 0.1 WSW 13 19 7 10 1019.1 1019.1 0.0
14/05:00am 7.8 5.2 7.7 99 0.0 W 11 13 6 7 1018.8 1018.8 0.0
14/04:30am 7.5 4.8 7.4 99 0.0 WSW 11 13 6 7 1018.7 1018.7 0.0
14/04:00am 8.1 5.2 8.0 99 0.0 W 13 15 7 8 1018.6 1018.6 0.0
14/03:30am 6.3 3.7 6.2 99 0.0 NW 9 11 5 6 1018.7 1018.7 0.0
14/03:23am 6.1 3.5 6.0 99 0.0 NNW 9 11 5 6 1018.7 1018.7 0.0
14/03:09am 6.2 4.9 6.1 99 0.0 N 2 7 1 4 1019.0 1019.0 0.0
14/03:00am 5.7 3.9 5.6 99 0.0 N 4 9 2 5 1019.1 1019.1 0.0
14/02:34am 6.5 4.3 6.4 99 0.0 NNW 7 9 4 5 1019.3 1019.3 0.0
14/02:30am 7.0 5.0 6.9 99 0.0 NNW 7 7 4 4 1019.3 1019.3 0.0
14/02:16am 7.1 6.0 6.8 98 0.1 NNW 2 9 1 5 1019.5 1019.5 0.0
14/02:00am 8.9 6.9 8.8 99 0.0 WSW 9 13 5 7 1019.6 1019.6 0.0
14/01:30am 8.5 6.8 8.4 99 0.0 WSW 7 11 4 6 1019.7 1019.7 0.0
14/01:00am 8.7 7.1 8.6 99 0.0 WSW 7 9 4 5 1019.7 1019.7 0.0
14/12:30am 8.6 8.2 8.3 98 0.1 CALM 0 0 0 0 1019.8 1019.8 0.0
14/12:00am 9.3 9.1 9.2 99 0.0 CALM 0 0 0 0 1020.4 1020.4 0.0
 
Date/Time
EST
Temp
°C
App
Temp
°C
Dew
Point
°C
Rel
Hum
%
Delta-T
°C
Wind Press
QNH
hPa
Press
MSL
hPa
Rain since
9am
mm
Dir  Spd
km/h
Gust
km/h
Spd
kts
Gust
kts
13/11:30pm 9.1 8.8 8.6 97 0.2 CALM 0 0 0 0 1020.9 1020.9 0.0
13/11:00pm 10.5 10.6 10.3 99 0.1 CALM 0 0 0 0 1021.4 1021.4 0.0
13/10:30pm 10.1 9.6 9.5 96 0.3 WSW 2 7 1 4 1021.6 1021.6 0.0
13/10:00pm 10.2 8.7 9.3 94 0.4 S 7 9 4 5 1021.9 1021.9 0.0
13/09:30pm 10.3 10.1 9.1 92 0.6 CALM 0 0 0 0 1022.1 1022.1 0.0
13/09:00pm 9.8 8.1 8.4 91 0.7 N 7 7 4 4 1022.1 1022.1 0.0
13/08:30pm 10.6 9.0 8.9 89 0.8 N 7 9 4 5 1022.4 1022.4 0.0
13/08:00pm 11.7 10.5 9.4 86 1.2 N 6 9 3 5 1022.5 1022.5 0.0
13/07:30pm 12.9 11.8 10.1 83 1.4 NNW 6 7 3 4 1022.5 1022.5 0.0
13/07:00pm 14.1 14.2 10.3 78 2.0 CALM 0 0 0 0 1022.3 1022.3 0.0
13/06:30pm 14.2 14.3 10.0 76 2.2 CALM 0 0 0 0 1021.8 1021.8 0.0
13/06:00pm 15.2 13.9 10.0 71 2.7 E 7 7 4 4 1021.4 1021.4 0.0
13/05:30pm 16.1 14.5 10.2 68 3.1 ESE 9 11 5 6 1021.1 1021.1 0.0
13/05:00pm 16.9 14.6 10.3 65 3.5 ESE 13 19 7 10 1021.2 1021.2 0.0
13/04:30pm 17.6 14.5 10.2 62 3.9 ESE 17 26 9 14 1021.0 1021.0 0.0
13/04:00pm 18.3 15.3 10.7 61 4.1 SE 17 26 9 14 1021.1 1021.1 0.0
13/03:30pm 18.9 15.5 10.7 59 4.4 ESE 19 26 10 14 1020.8 1020.8 0.0
13/03:00pm 19.8 16.4 11.3 58 4.7 SE 20 30 11 16 1020.8 1020.8 0.0
13/02:30pm 19.7 16.3 10.4 55 5.0 SE 19 28 10 15 1020.7 1020.7 0.0
13/02:00pm 19.5 15.0 10.2 55 5.0 SE 24 35 13 19 1020.8 1020.8 0.0
13/01:30pm 20.0 15.2 10.4 54 5.2 SE 26 33 14 18 1021.0 1021.0 0.0
13/01:00pm 20.0 14.8 10.4 54 5.2 SE 28 33 15 18 1021.5 1021.5 0.0
13/12:30pm 19.8 14.2 10.2 54 5.2 SE 30 41 16 22 1021.8 1021.8 0.0
13/12:00pm 21.2 16.3 11.2 53 5.5 SE 28 37 15 20 1022.1 1022.1 0.0
13/11:30am 20.2 15.2 10.9 55 5.1 SE 28 39 15 21 1022.4 1022.4 0.0
13/11:00am 20.7 15.3 10.8 53 5.4 SSE 30 37 16 20 1022.8 1022.8 0.0
13/10:30am 20.5 15.0 10.6 53 5.4 SSE 30 43 16 23 1022.9 1022.9 0.0
13/10:00am 20.0 14.5 10.7 55 5.1 SSE 30 41 16 22 1023.1 1023.1 0.0
13/09:30am 20.0 13.7 11.2 57 4.8 SSE 35 46 19 25 1023.0 1023.0 0.0
13/09:00am 19.4 15.1 11.9 62 4.2 SSE 26 37 14 20 1022.7 1022.7 0.2
13/08:30am 18.8 16.5 10.4 58 4.5 S 13 26 7 14 1022.2 1022.2 0.2
13/08:00am 15.8 12.7 3.6 44 5.6 WNW 9 9 5 5 1021.6 1021.6 0.2
13/07:30am 12.3 10.2 5.7 64 3.1 S 6 11 3 6 1021.2 1021.2 0.2
13/07:00am 9.2 7.1 5.8 79 1.6 NNW 6 7 3 4 1020.2 1020.2 0.2
13/06:30am 9.0 6.6 5.2 77 1.7 E 7 11 4 6 1019.4 1019.4 0.2
13/06:00am 8.2 5.9 5.8 85 1.1 SW 7 11 4 6 1018.7 1018.7 0.2
13/05:30am 8.7 6.1 6.0 83 1.2 SSW 9 11 5 6 1018.6 1018.6 0.2
13/05:00am 8.4 6.0 5.3 81 1.4 WSW 7 9 4 5 1017.9 1017.9 0.2
13/04:30am 7.8 6.8 5.8 87 0.9 CALM 0 0 0 0 1017.4 1017.4 0.2
13/04:00am 8.0 7.0 5.5 84 1.1 CALM 0 0 0 0 1017.4 1017.4 0.2
13/03:30am 9.4 7.2 6.1 80 1.5 WNW 7 13 4 7 1017.3 1017.3 0.2
13/03:00am 9.3 6.7 6.2 81 1.4 WNW 9 13 5 7 1017.4 1017.4 0.2
13/02:30am 10.2 8.0 7.8 85 1.2 SSW 9 11 5 6 1017.9 1017.9 0.2
13/02:00am 10.7 8.9 7.8 82 1.4 SW 7 9 4 5 1017.9 1017.9 0.2
13/01:30am 10.3 8.1 7.7 84 1.2 SSW 9 13 5 7 1018.2 1018.2 0.2
13/01:00am 11.8 9.3 6.7 71 2.4 NNW 9 11 5 6 1018.4 1018.4 0.2
13/12:30am 10.8 10.3 8.0 83 1.4 CALM 0 4 0 2 1018.8 1018.8 0.2
13/12:00am 11.1 9.3 7.2 77 1.9 NNW 6 9 3 5 1019.0 1019.0 0.2
 
Date/Time
EST
Temp
°C
App
Temp
°C
Dew
Point
°C
Rel
Hum
%
Delta-T
°C
Wind Press
QNH
hPa
Press
MSL
hPa
Rain since
9am
mm
Dir  Spd
km/h
Gust
km/h
Spd
kts
Gust
kts
12/11:30pm 11.9 10.6 7.8 76 2.0 NW 4 7 2 4 1019.3 1019.3 0.2
12/11:00pm 12.7 11.0 8.4 75 2.1 W 7 11 4 6 1019.3 1019.3 0.2
12/10:30pm 13.1 11.1 8.8 75 2.2 SSW 9 13 5 7 1019.5 1019.5 0.2
12/10:00pm 13.3 11.7 8.8 74 2.3 WSW 7 11 4 6 1019.1 1019.1 0.2
12/09:30pm 12.4 11.9 7.7 73 2.3 CALM 0 0 0 0 1018.6 1018.6 0.2
12/09:00pm 13.3 12.6 8.4 72 2.4 W 2 9 1 5 1018.6 1018.6 0.2
12/08:30pm 14.1 12.2 7.4 64 3.3 WNW 7 7 4 4 1018.7 1018.7 0.2
12/08:00pm 14.3 13.5 6.6 60 3.7 CALM 0 0 0 0 1018.9 1018.9 0.2
12/07:30pm 15.7 14.9 6.4 54 4.5 CALM 0 0 0 0 1018.9 1018.9 0.2
12/07:00pm 16.2 14.3 6.9 54 4.6 SSE 6 9 3 5 1018.8 1018.8 0.2
12/06:30pm 16.9 14.4 6.4 50 5.1 NE 9 11 5 6 1018.3 1018.3 0.2
12/06:00pm 19.2 18.2 7.3 46 6.0 SE 2 7 1 4 1018.2 1018.2 0.2

Other formats

Comma delimited format used in spreadsheet applications
http://www.bom.gov.au/fwo/IDN60801/IDN60801.95784.axf

JavaScript Object Notation format (JSON) in row-major order
http://www.bom.gov.au/fwo/IDN60801/IDN60801.95784.json

Data quality

Most of these data are generated automatically and are frequently updated. Quality checks on data are not normally performed. It is possible for incorrect values to appear. Refer to information at About Latest Weather Observations and please check the disclaimer before using these data.